Time;durP1;ratioP1;P1;durP2;ratioP2;P2;SDS_P1;SDS_P2;PMS_P1;PMS_P2;Temp;Humidity;BMP_temperature;BMP_pressure;BME280_temperature;BME280_humidity;BME280_pressure;Samples;Min_cycle;Max_cycle;Signal;HPM_P1;HPM_P2
2023/01/14 00:00:25;;;;;;;43.20;20.90;;;;;;;9.44;64.06;98950.13;4409013;32;20098;-78
2023/01/14 00:02:50;;;;;;;40.55;20.45;;;;;;;9.49;63.96;98955.19;4395145;32;20156;-79
2023/01/14 00:05:16;;;;;;;42.45;21.23;;;;;;;9.53;63.80;98956.75;4395041;32;20110;-79
2023/01/14 00:07:41;;;;;;;41.90;19.87;;;;;;;9.58;63.73;98958.22;4408716;32;20142;-79
2023/01/14 00:10:07;;;;;;;39.08;19.05;;;;;;;9.57;63.75;98961.78;4408938;32;20112;-79
2023/01/14 00:12:33;;;;;;;38.45;18.73;;;;;;;9.61;63.59;98971.22;4408808;32;20077;-79
2023/01/14 00:14:59;;;;;;;42.70;19.48;;;;;;;9.63;63.60;98973.78;4408683;32;20461;-79
2023/01/14 00:17:24;;;;;;;37.42;18.67;;;;;;;9.60;63.50;98968.66;4408652;32;20090;-79
2023/01/14 00:19:49;;;;;;;36.05;18.60;;;;;;;9.67;63.17;98975.34;4408764;32;20112;-79
2023/01/14 00:22:15;;;;;;;41.20;19.55;;;;;;;9.71;63.27;98979.53;4408580;32;20090;-79
2023/01/14 00:24:40;;;;;;;38.60;18.80;;;;;;;9.57;63.55;98974.06;4409347;32;20174;-79
2023/01/14 00:27:06;;;;;;;41.08;20.55;;;;;;;9.61;63.49;98973.84;4410601;32;20167;-79
2023/01/14 00:29:33;;;;;;;38.47;18.70;;;;;;;9.62;63.40;98967.69;4384087;32;20089;-79
2023/01/14 00:32:03;;;;;;;37.13;19.08;;;;;;;9.67;63.28;98966.59;4396583;32;20117;-79
2023/01/14 00:34:30;;;;;;;42.45;19.75;;;;;;;9.63;63.28;98966.72;4411964;32;20121;-83
2023/01/14 00:36:55;;;;;;;37.08;18.50;;;;;;;9.60;63.17;98953.75;4397898;32;20157;-80
2023/01/14 00:39:21;;;;;;;42.30;19.50;;;;;;;9.37;63.82;98965.34;4411227;32;20143;-81
2023/01/14 00:41:46;;;;;;;41.00;19.48;;;;;;;9.39;63.78;98971.41;4411050;32;20078;-80
2023/01/14 00:44:13;;;;;;;37.53;18.50;;;;;;;9.53;63.38;98968.09;4411084;32;20124;-81
2023/01/14 00:46:40;;;;;;;53.65;20.67;;;;;;;9.62;63.28;98972.94;4424641;32;20112;-81
2023/01/14 00:49:07;;;;;;;34.88;18.35;;;;;;;9.39;63.88;98976.66;4410224;32;20082;-79
2023/01/14 00:51:33;;;;;;;38.15;18.55;;;;;;;9.56;63.46;98967.09;4408812;32;20234;-81
2023/01/14 00:54:00;;;;;;;41.47;19.60;;;;;;;9.54;63.54;98979.47;4410317;32;20169;-81
2023/01/14 00:56:26;;;;;;;39.75;19.30;;;;;;;9.18;64.70;98983.75;4424233;32;20159;-80
2023/01/14 00:58:51;;;;;;;39.28;19.08;;;;;;;9.37;64.09;98977.66;4408362;32;20381;-81
2023/01/14 01:01:17;;;;;;;40.67;19.20;;;;;;;9.52;63.73;98981.31;4424284;32;20116;-80
2023/01/14 01:03:47;;;;;;;42.75;19.60;;;;;;;9.57;63.50;98969.66;4424218;32;20366;-81
2023/01/14 01:06:16;;;;;;;40.33;19.02;;;;;;;9.59;63.42;98973.06;4408476;32;20508;-81
2023/01/14 01:08:41;;;;;;;38.42;19.17;;;;;;;9.59;63.46;98961.69;4410171;32;20180;-81
2023/01/14 01:11:07;;;;;;;39.75;19.10;;;;;;;9.62;63.36;98965.03;4410202;32;20105;-80
2023/01/14 01:13:34;;;;;;;42.42;19.52;;;;;;;9.62;63.14;98969.47;4410191;32;20125;-79
2023/01/14 01:16:01;;;;;;;41.30;20.08;;;;;;;9.49;63.23;98965.72;4397542;32;20137;-80
2023/01/14 01:18:27;;;;;;;43.30;18.75;;;;;;;9.58;62.92;98965.25;4410169;32;20109;-80
2023/01/14 01:21:14;;;;;;;41.15;19.50;;;;;;;9.52;62.77;98966.41;4424236;32;20081;-80
2023/01/14 01:23:40;;;;;;;40.42;19.02;;;;;;;9.61;62.64;98973.00;4410466;32;20188;-80
2023/01/14 01:26:09;;;;;;;39.63;18.48;;;;;;;9.42;62.94;98970.38;4410091;32;20113;-81
2023/01/14 01:28:35;;;;;;;37.15;18.58;;;;;;;9.47;62.96;98962.28;4410242;32;20121;-80
2023/01/14 01:31:02;;;;;;;34.88;18.05;;;;;;;9.49;62.96;98958.66;4411213;32;20125;-84
2023/01/14 01:33:27;;;;;;;33.78;17.50;;;;;;;9.43;62.96;98962.44;4406933;32;20370;-80
2023/01/14 01:36:01;;;;;;;35.65;16.55;;;;;;;9.49;62.86;98963.06;4411385;32;20120;-80
2023/01/14 01:38:27;;;;;;;36.65;16.73;;;;;;;9.50;62.92;98965.59;4411621;32;20150;-82
2023/01/14 01:40:52;;;;;;;37.58;17.20;;;;;;;9.51;62.76;98959.44;4425352;32;20174;-83
2023/01/14 01:43:20;;;;;;;35.72;16.15;;;;;;;9.44;62.65;98961.53;4425336;32;20235;-82
2023/01/14 01:45:47;;;;;;;35.35;17.23;;;;;;;9.28;62.65;98971.03;4408889;32;20160;-82
2023/01/14 01:48:16;;;;;;;36.78;17.33;;;;;;;9.33;62.51;98970.81;4412485;32;20123;-82
2023/01/14 01:50:44;;;;;;;36.22;18.23;;;;;;;9.36;62.54;98961.00;4411590;32;20540;-82
2023/01/14 01:53:10;;;;;;;39.05;17.67;;;;;;;9.36;62.59;98963.63;4411375;32;20254;-81
2023/01/14 01:55:39;;;;;;;37.30;17.98;;;;;;;9.27;62.75;98966.69;4411519;32;20133;-82
2023/01/14 01:58:04;;;;;;;38.63;17.35;;;;;;;9.32;62.77;98977.00;4436884;32;20168;-81
2023/01/14 02:00:30;;;;;;;39.70;19.52;;;;;;;9.30;62.79;98968.34;4425374;32;20089;-82
2023/01/14 02:02:59;;;;;;;45.30;18.90;;;;;;;9.11;63.42;98963.91;4425120;32;20466;-82
2023/01/14 02:05:25;;;;;;;39.55;18.42;;;;;;;9.06;63.58;98976.44;4411307;32;20125;-82
2023/01/14 02:07:50;;;;;;;44.45;19.90;;;;;;;8.65;64.35;98985.22;4411204;32;20077;-82
2023/01/14 02:10:16;;;;;;;45.35;18.87;;;;;;;8.76;64.11;98974.25;4425323;32;20093;-81
2023/01/14 02:12:54;;;;;;;40.90;18.98;;;;;;;8.89;63.72;98977.19;4411434;32;20199;-82
2023/01/14 02:15:42;;;;;;;96.22;22.08;;;;;;;8.94;63.57;98979.59;4425307;32;20097;-82
2023/01/14 02:18:32;;;;;;;41.95;19.50;;;;;;;8.34;65.77;98987.41;4411390;32;20473;-82
2023/01/14 02:21:16;;;;;;;43.85;19.35;;;;;;;8.64;64.94;98987.91;4347635;33;20111;-81
2023/01/14 02:23:53;;;;;;;177.93;25.65;;;;;;;8.89;64.48;98977.19;4347735;33;20107;-82
2023/01/14 02:26:57;;;;;;;45.70;19.50;;;;;;;8.77;64.92;98986.47;4347619;33;20126;-81
2023/01/14 02:29:44;;;;;;;175.85;30.20;;;;;;;9.03;64.32;98976.56;4347592;33;20099;-82
2023/01/14 02:32:15;;;;;;;127.70;26.12;;;;;;;9.08;64.17;98969.34;4347942;33;20497;-82
2023/01/14 02:34:56;;;;;;;47.13;20.42;;;;;;;9.10;64.21;98982.38;4347766;33;20159;-81
2023/01/14 02:37:27;;;;;;;41.42;20.48;;;;;;;9.16;64.22;98985.59;4360046;32;20166;-82
2023/01/14 02:40:29;;;;;;;39.30;19.05;;;;;;;9.19;64.31;98985.47;4347661;33;20187;-82
2023/01/14 02:46:33;;;;;;;70.03;19.52;;;;;;;9.29;64.21;98985.03;4274605;33;20141;-83
2023/01/14 02:49:00;;;;;;;37.17;17.15;;;;;;;9.29;64.10;98990.28;4274512;33;20159;-83
2023/01/14 02:51:26;;;;;;;34.75;16.10;;;;;;;9.33;63.75;98990.09;4262794;33;20226;-83
2023/01/14 02:53:51;;;;;;;33.05;16.20;;;;;;;9.34;63.46;98990.94;4274848;33;20137;-83
2023/01/14 02:56:17;;;;;;;33.03;16.25;;;;;;;9.33;63.40;98999.72;4274691;33;20144;-83
2023/01/14 02:59:02;;;;;;;33.03;15.43;;;;;;;9.24;63.30;98990.50;4295295;33;20191;-83
2023/01/14 03:01:44;;;;;;;36.15;15.43;;;;;;;9.19;63.09;99005.63;4318185;33;20131;-83
2023/01/14 03:04:30;;;;;;;36.75;15.77;;;;;;;9.20;62.83;99002.09;4318145;33;20087;-83
2023/01/14 03:07:03;;;;;;;32.38;14.65;;;;;;;9.14;62.57;99008.47;4318114;33;20134;-83
2023/01/14 03:09:37;;;;;;;30.73;15.07;;;;;;;8.98;62.54;99013.56;4317809;33;20095;-83
2023/01/14 03:12:23;;;;;;;31.83;14.32;;;;;;;8.87;62.79;99014.97;4317979;33;20199;-83
2023/01/14 03:14:56;;;;;;;32.40;15.13;;;;;;;8.88;62.81;99006.16;4305950;33;20084;-83
2023/01/14 03:17:28;;;;;;;30.62;14.20;;;;;;;8.87;62.64;99007.94;4320608;32;20108;-83
2023/01/14 03:20:03;;;;;;;32.30;15.75;;;;;;;8.65;62.89;99003.63;4364736;32;20588;-82
2023/01/14 03:22:29;;;;;;;32.40;14.82;;;;;;;8.43;63.39;99008.06;4398834;32;20081;-83
2023/01/14 03:24:56;;;;;;;32.33;14.55;;;;;;;8.56;63.14;99016.28;4410983;32;20074;-83
2023/01/14 03:27:24;;;;;;;28.63;14.20;;;;;;;8.56;63.13;99016.28;4410786;32;20477;-83
2023/01/14 03:29:52;;;;;;;28.25;13.50;;;;;;;8.27;63.96;99016.56;4410774;32;20169;-83
2023/01/14 03:32:22;;;;;;;30.12;14.18;;;;;;;8.46;63.38;99019.31;4424525;32;20661;-83
2023/01/14 03:34:55;;;;;;;29.05;13.90;;;;;;;8.58;62.94;99019.69;4410552;32;20488;-83
2023/01/14 03:37:22;;;;;;;28.65;13.35;;;;;;;8.42;63.37;99025.59;4424601;32;20164;-83
2023/01/14 03:39:48;;;;;;;26.00;12.75;;;;;;;8.51;63.11;99024.34;4410746;32;20181;-83
2023/01/14 03:42:20;;;;;;;28.05;13.05;;;;;;;8.51;63.08;99023.50;4424593;32;20152;-83
2023/01/14 03:45:16;;;;;;;29.02;12.98;;;;;;;8.50;63.09;99025.28;4435631;32;20082;-83
2023/01/14 03:47:42;;;;;;;23.20;11.07;;;;;;;8.27;63.72;99031.47;4420772;32;20430;-82
2023/01/14 03:50:12;;;;;;;23.12;10.80;;;;;;;8.18;64.09;99039.69;4436388;32;20129;-82
2023/01/14 03:52:49;;;;;;;22.30;11.05;;;;;;;8.10;64.47;99039.16;4410844;32;20111;-83
2023/01/14 03:55:42;;;;;;;23.95;11.30;;;;;;;7.81;65.33;99044.66;4410473;32;20108;-83
2023/01/14 03:58:36;;;;;;;22.35;10.50;;;;;;;8.03;64.73;99049.88;4424477;32;20113;-83
2023/01/14 04:01:19;;;;;;;23.55;10.82;;;;;;;8.14;64.45;99046.00;4425776;32;20094;-82
2023/01/14 04:03:44;;;;;;;21.55;10.90;;;;;;;7.61;65.61;99042.81;4426498;32;20441;-83
2023/01/14 04:06:11;;;;;;;22.95;10.90;;;;;;;7.82;65.36;99048.09;4412312;32;20089;-82
2023/01/14 04:08:37;;;;;;;23.08;11.25;;;;;;;7.73;65.77;99044.09;4437331;32;20109;-83
2023/01/14 04:11:02;;;;;;;25.12;11.40;;;;;;;8.00;64.72;99034.28;4412232;32;20120;-82
2023/01/14 04:16:12;;;;;;;22.08;10.38;;;;;;;8.05;64.63;99039.31;4426136;32;20108;-82
2023/01/14 04:18:37;;;;;;;24.20;12.13;;;;;;;7.94;64.92;99041.53;4425933;32;20086;-82
2023/01/14 04:21:02;;;;;;;21.95;11.20;;;;;;;7.98;64.66;99043.97;4425818;32;20146;-82
2023/01/14 04:23:28;;;;;;;22.13;10.70;;;;;;;8.13;64.23;99052.12;4412119;32;20160;-83
2023/01/14 04:25:58;;;;;;;20.67;9.77;;;;;;;8.20;63.77;99059.69;4425721;32;20081;-83
2023/01/14 04:28:23;;;;;;;21.65;10.27;;;;;;;8.22;63.59;99057.88;4412010;32;20102;-83
2023/01/14 04:30:49;;;;;;;20.23;9.93;;;;;;;8.26;63.48;99062.06;4425942;32;20157;-83
2023/01/14 04:33:15;;;;;;;22.02;10.18;;;;;;;8.26;63.36;99059.44;4412382;32;20350;-83
2023/01/14 04:35:40;;;;;;;25.05;11.18;;;;;;;8.31;63.15;99051.41;4426154;32;20159;-84
2023/01/14 04:38:05;;;;;;;20.60;9.95;;;;;;;8.30;62.98;99047.06;4426086;32;20078;-84
2023/01/14 04:40:31;;;;;;;21.65;9.68;;;;;;;8.18;63.09;99051.03;4426246;32;20453;-83
2023/01/14 04:42:56;;;;;;;23.05;11.30;;;;;;;8.10;63.17;99058.38;4426177;32;20090;-83
2023/01/14 04:45:22;;;;;;;23.58;10.77;;;;;;;8.06;63.22;99062.87;4426028;32;20117;-83
2023/01/14 04:47:50;;;;;;;24.73;11.48;;;;;;;8.09;63.24;99069.78;4425984;32;20144;-83
2023/01/14 04:50:32;;;;;;;20.75;10.35;;;;;;;8.05;63.42;99076.06;4426112;32;20081;-83
2023/01/14 04:53:09;;;;;;;23.65;10.57;;;;;;;8.09;63.18;99069.78;4425861;32;20476;-83
2023/01/14 04:55:39;;;;;;;25.60;10.52;;;;;;;7.96;63.69;99071.16;4425744;32;20070;-83
2023/01/14 04:58:05;;;;;;;21.80;10.38;;;;;;;7.78;64.19;99075.38;4425859;32;20171;-81
2023/01/14 05:00:31;;;;;;;25.30;11.80;;;;;;;7.94;63.75;99075.62;4425622;32;20163;-82
2023/01/14 05:02:56;;;;;;;21.65;10.38;;;;;;;7.77;64.28;99074.53;4425687;32;20089;-82
2023/01/14 05:05:21;;;;;;;22.13;10.35;;;;;;;7.94;63.73;99076.50;4425741;32;20093;-82
2023/01/14 05:07:47;;;;;;;23.80;10.52;;;;;;;7.71;64.40;99081.75;4425468;32;20094;-81
2023/01/14 05:10:12;;;;;;;21.25;9.55;;;;;;;7.83;63.76;99069.03;4425323;32;20081;-82
2023/01/14 05:12:38;;;;;;;20.33;9.02;;;;;;;7.58;64.54;99070.91;4425739;32;20120;-83
2023/01/14 05:15:04;;;;;;;19.20;8.80;;;;;;;7.60;65.16;99072.53;4425640;32;20086;-83
2023/01/14 05:17:29;;;;;;;19.25;8.88;;;;;;;7.62;65.12;99078.59;4425628;32;20102;-82
2023/01/14 05:19:54;;;;;;;18.87;8.65;;;;;;;7.48;65.69;99084.34;4425481;32;20116;-82
2023/01/14 05:22:20;;;;;;;20.60;8.88;;;;;;;7.64;65.24;99086.41;4425661;32;20113;-82
2023/01/14 05:24:45;;;;;;;19.58;8.70;;;;;;;7.69;65.02;99089.72;4425625;32;20358;-82
2023/01/14 05:27:11;;;;;;;19.75;8.35;;;;;;;7.65;65.14;99083.72;4425399;32;20133;-83
2023/01/14 05:29:38;;;;;;;17.15;8.25;;;;;;;7.67;65.25;99084.50;4425693;32;20097;-81
2023/01/14 05:32:04;;;;;;;20.00;8.67;;;;;;;7.70;65.29;99087.94;4425543;32;20112;-82
2023/01/14 05:34:30;;;;;;;22.50;9.45;;;;;;;7.54;65.94;99082.41;4425611;32;20085;-82
2023/01/14 05:36:56;;;;;;;21.70;10.35;;;;;;;7.66;65.35;99090.66;4425547;32;20129;-82
2023/01/14 05:39:22;;;;;;;22.13;10.13;;;;;;;7.70;65.21;99088.78;4425421;32;20089;-81
2023/01/14 05:47:15;;;;;;;22.60;10.10;;;;;;;7.72;64.40;99102.69;4425438;32;20127;-83
2023/01/14 05:49:40;;;;;;;23.00;9.95;;;;;;;7.77;64.07;99100.75;4425383;32;20117;-83
2023/01/14 05:52:06;;;;;;;25.33;11.60;;;;;;;7.77;64.18;99105.16;4425217;32;20428;-82
2023/01/14 05:54:31;;;;;;;21.25;10.57;;;;;;;7.64;64.47;99115.25;4425197;32;20104;-83
2023/01/14 05:56:57;;;;;;;23.00;10.65;;;;;;;7.75;64.20;99112.22;4425290;32;20109;-82
2023/01/14 05:59:22;;;;;;;24.95;11.02;;;;;;;7.50;64.53;99113.12;4425057;32;20143;-81
2023/01/14 06:07:15;;;;;;;26.45;11.82;;;;;;;7.34;65.32;99104.97;4425193;32;20124;-84
2023/01/14 06:09:41;;;;;;;25.83;12.25;;;;;;;7.41;65.14;99114.31;4411192;32;20125;-80
2023/01/14 06:12:06;;;;;;;25.08;12.00;;;;;;;7.37;65.36;99114.50;4410749;32;20128;-80
2023/01/14 06:14:33;;;;;;;25.40;12.25;;;;;;;7.00;66.71;99119.25;4421940;32;20104;-80
2023/01/14 06:16:59;;;;;;;24.63;11.77;;;;;;;6.92;67.02;99121.31;4409718;32;20132;-81
2023/01/14 06:19:24;;;;;;;24.85;11.45;;;;;;;7.22;66.32;99126.38;4422890;32;20089;-80
2023/01/14 06:21:50;;;;;;;23.25;11.73;;;;;;;7.01;66.95;99126.22;4405639;32;20378;-80
2023/01/14 06:24:16;;;;;;;24.50;11.73;;;;;;;6.94;66.99;99126.50;4423744;32;20163;-80
2023/01/14 06:26:42;;;;;;;24.35;11.63;;;;;;;7.07;66.75;99130.41;4409044;32;20163;-80
2023/01/14 06:29:09;;;;;;;25.85;12.05;;;;;;;6.98;67.21;99139.41;4422788;32;20116;-80
2023/01/14 06:31:36;;;;;;;23.23;10.45;;;;;;;7.01;67.19;99139.31;4422801;32;20082;-81
2023/01/14 06:34:01;;;;;;;20.52;9.70;;;;;;;7.21;66.37;99130.75;4397035;32;20477;-82
2023/01/14 06:36:27;;;;;;;19.02;8.38;;;;;;;7.40;65.70;99130.97;4409050;32;20142;-81
2023/01/14 06:38:53;;;;;;;15.07;5.70;;;;;;;7.53;65.12;99120.03;4408372;32;20446;-80
2023/01/14 06:41:18;;;;;;;13.13;4.68;;;;;;;7.52;65.10;99129.66;4407759;32;20093;-80
2023/01/14 06:43:44;;;;;;;12.95;5.32;;;;;;;7.67;64.43;99126.47;4410440;32;20078;-82
2023/01/14 06:46:14;;;;;;;13.25;5.53;;;;;;;7.59;64.70;99139.03;4424739;32;20102;-77
2023/01/14 06:48:40;;;;;;;12.65;4.93;;;;;;;7.50;65.02;99131.47;4411178;32;20446;-79
2023/01/14 06:51:11;;;;;;;12.93;4.70;;;;;;;7.54;65.06;99133.06;4425104;32;20089;-79
2023/01/14 06:53:40;;;;;;;12.40;4.87;;;;;;;7.74;64.39;99136.72;4411314;32;20124;-80
2023/01/14 06:56:06;;;;;;;;;;;;;;;7.50;65.14;99139.34;4425363;32;20118;-80
2023/01/14 06:58:32;;;;;;;15.50;6.87;;;;;;;7.79;64.31;99142.66;4398473;32;20011;-80
2023/01/14 07:00:58;;;;;;;15.57;6.50;;;;;;;7.78;64.03;99141.78;4424962;32;20121;-79
2023/01/14 07:03:24;;;;;;;15.02;6.68;;;;;;;7.15;65.91;99143.22;4408483;32;80523;-79
2023/01/14 07:05:49;;;;;;;18.02;6.72;;;;;;;7.55;64.80;99139.16;4424889;32;20125;-80
2023/01/14 07:08:15;;;;;;;17.80;7.25;;;;;;;7.37;65.30;99141.53;4424708;32;20102;-80
2023/01/14 07:10:40;;;;;;;14.95;7.15;;;;;;;7.51;64.97;99148.06;4409372;32;20459;-78
2023/01/14 07:13:06;;;;;;;18.65;7.70;;;;;;;7.43;65.14;99158.81;4421497;32;20208;-78
2023/01/14 07:15:31;;;;;;;16.27;7.10;;;;;;;7.36;65.39;99152.06;4423586;32;20454;-79
2023/01/14 07:17:56;;;;;;;19.42;7.53;;;;;;;7.26;65.64;99151.53;4424338;32;20090;-79
2023/01/14 07:20:22;;;;;;;15.93;7.53;;;;;;;7.25;65.90;99155.94;4410785;32;20077;-79
2023/01/14 07:22:47;;;;;;;15.40;6.45;;;;;;;7.34;65.49;99153.91;4424717;32;20120;-81
2023/01/14 07:25:13;;;;;;;15.93;5.78;;;;;;;7.02;66.34;99155.87;4410763;32;20480;-82
2023/01/14 07:27:38;;;;;;;13.75;5.25;;;;;;;7.17;65.97;99165.00;4424717;32;20118;-82
2023/01/14 07:30:04;;;;;;;13.73;4.53;;;;;;;7.21;65.42;99167.44;4424585;32;20115;-80
2023/01/14 07:32:32;;;;;;;13.32;4.47;;;;;;;7.23;65.29;99167.41;4424611;32;20112;-80
2023/01/14 07:34:58;;;;;;;12.02;4.22;;;;;;;7.05;66.43;99167.12;4410625;32;20593;-82
2023/01/14 07:37:23;;;;;;;12.77;4.45;;;;;;;6.96;67.19;99177.91;4410391;32;20106;-81
2023/01/14 07:39:49;;;;;;;13.00;4.40;;;;;;;7.16;66.88;99174.59;4424366;32;20082;-84
2023/01/14 07:42:17;;;;;;;11.98;4.85;;;;;;;7.40;65.92;99179.91;4424611;32;20421;-83
2023/01/14 07:44:43;;;;;;;13.60;5.78;;;;;;;7.41;65.55;99173.75;4423976;32;20171;-81
2023/01/14 07:47:11;;;;;;;15.07;5.18;;;;;;;7.59;65.06;99177.47;4423994;32;20417;-82
2023/01/14 07:49:39;;;;;;;14.65;5.28;;;;;;;7.13;66.04;99179.97;4423776;32;20090;-85
2023/01/14 07:52:05;;;;;;;15.82;6.07;;;;;;;6.99;66.50;99184.78;4424322;32;20152;-87
2023/01/14 07:54:30;;;;;;;15.05;6.35;;;;;;;7.63;64.97;99185.19;4409885;32;20749;-85
2023/01/14 07:56:56;;;;;;;16.50;6.60;;;;;;;7.44;65.35;99182.38;4409852;32;20182;-85
2023/01/14 07:59:21;;;;;;;13.07;5.57;;;;;;;7.12;66.16;99193.09;4423634;32;20111;-85
2023/01/14 08:01:46;;;;;;;15.38;6.50;;;;;;;7.28;66.07;99184.69;4410228;32;20423;-82
2023/01/14 08:04:12;;;;;;;14.48;6.37;;;;;;;7.53;65.01;99185.56;4424058;32;20090;-86
2023/01/14 08:06:37;;;;;;;15.07;6.25;;;;;;;7.63;64.68;99179.06;4424133;32;20147;-85
2023/01/14 08:09:03;;;;;;;14.60;6.85;;;;;;;7.57;65.25;99181.91;4423862;32;20112;-82
2023/01/14 08:11:29;;;;;;;16.70;7.12;;;;;;;7.05;66.97;99195.94;4424215;32;20104;-84
2023/01/14 08:13:54;;;;;;;17.37;7.35;;;;;;;7.26;66.42;99196.09;4424113;32;20450;-81
2023/01/14 08:16:21;;;;;;;16.77;7.10;;;;;;;7.18;67.12;99196.34;4423797;32;20149;-84
2023/01/14 08:18:48;;;;;;;20.80;7.85;;;;;;;7.21;67.27;99204.12;4424197;32;20112;-85
2023/01/14 08:21:13;;;;;;;20.77;8.32;;;;;;;7.66;65.62;99202.56;4408025;32;20100;-87
2023/01/14 08:23:38;;;;;;;21.00;9.10;;;;;;;7.59;65.82;99201.94;4429691;32;20137;-87
2023/01/14 08:26:12;;;;;;;19.48;8.65;;;;;;;7.12;67.23;99198.34;4412901;32;20109;-87
2023/01/14 08:28:38;;;;;;;19.55;8.52;;;;;;;7.36;66.78;99200.13;4423843;32;20109;-87
2023/01/14 08:31:12;;;;;;;21.45;9.77;;;;;;;7.15;67.42;99209.59;4409863;32;20163;-86
2023/01/14 08:33:41;;;;;;;20.52;9.10;;;;;;;7.26;67.22;99203.97;4423753;32;20101;-86
2023/01/14 08:36:10;;;;;;;21.10;8.45;;;;;;;7.06;68.25;99215.13;4410018;32;20128;-86
2023/01/14 08:38:39;;;;;;;;;;;;;;;6.83;69.00;99214.09;4423862;32;20166;-87
2023/01/14 08:41:05;;;;;;;19.80;7.72;;;;;;;6.96;69.23;99218.97;4410233;32;19973;-88
2023/01/14 08:43:31;;;;;;;17.30;7.60;;;;;;;7.12;68.73;99220.16;4421736;32;20433;-86
2023/01/14 08:45:57;;;;;;;17.70;6.80;;;;;;;6.96;69.34;99224.22;4415683;32;20098;-87
2023/01/14 08:48:23;;;;;;;18.77;7.85;;;;;;;6.95;69.23;99220.72;4413453;32;20112;-89
2023/01/14 08:50:48;;;;;;;18.25;7.75;;;;;;;7.07;69.07;99219.47;4430221;32;20101;-87
2023/01/14 08:53:13;;;;;;;16.35;6.10;;;;;;;7.11;69.02;99223.69;4424882;32;20138;-87
2023/01/14 08:55:39;;;;;;;14.55;6.00;;;;;;;7.12;68.42;99225.41;4424437;32;20098;-86
2023/01/14 08:58:08;;;;;;;16.33;6.00;;;;;;;7.07;68.82;99225.56;4424576;32;20109;-86
2023/01/14 09:00:34;;;;;;;15.77;6.30;;;;;;;7.27;68.18;99231.87;4409566;32;20116;-87
2023/01/14 09:03:00;;;;;;;16.33;6.00;;;;;;;7.30;68.39;99229.16;4425659;32;20346;-86
2023/01/14 09:05:25;;;;;;;14.25;5.50;;;;;;;7.28;68.25;99238.81;4411884;32;20236;-86
2023/01/14 09:19:11;;;;;;;13.55;5.00;;;;;;;7.51;67.52;99245.91;4367434;32;20113;-86
2023/01/14 09:21:36;;;;;;;15.02;5.65;;;;;;;7.91;66.27;99238.41;4377769;32;20490;-86
2023/01/14 09:24:01;;;;;;;15.68;5.12;;;;;;;7.83;66.32;99236.91;4377865;32;20388;-87
2023/01/14 09:26:27;;;;;;;14.15;5.03;;;;;;;8.18;65.81;99239.16;4377801;32;20140;-86
2023/01/14 09:28:52;;;;;;;12.70;4.65;;;;;;;8.25;64.99;99238.00;4377957;32;20137;-87
2023/01/14 09:31:18;;;;;;;14.63;4.35;;;;;;;8.19;63.96;99228.59;4377976;32;20120;-87
2023/01/14 09:33:43;;;;;;;11.82;3.87;;;;;;;8.39;63.48;99219.09;4377715;32;20185;-87
2023/01/14 09:36:09;;;;;;;11.65;4.03;;;;;;;8.22;63.68;99230.25;4377953;32;20177;-86
2023/01/14 09:38:34;;;;;;;13.75;4.00;;;;;;;8.31;63.74;99232.53;4377788;32;20152;-87
2023/01/14 09:41:00;;;;;;;13.65;4.25;;;;;;;8.02;64.35;99234.47;4365323;32;20155;-87
2023/01/14 09:43:27;;;;;;;12.02;3.87;;;;;;;7.57;66.33;99243.09;4377784;32;20126;-87
2023/01/14 09:45:59;;;;;;;12.63;4.12;;;;;;;7.79;66.08;99235.31;4365249;32;20121;-86
2023/01/14 09:48:27;;;;;;;12.25;3.72;;;;;;;8.42;64.09;99225.13;4425085;32;20089;-87
2023/01/14 09:50:52;;;;;;;11.32;3.55;;;;;;;8.35;62.77;99218.38;4411510;32;20152;-87
2023/01/14 09:53:42;;;;;;;11.43;3.70;;;;;;;8.06;64.36;99232.59;4425445;32;20328;-87
2023/01/14 09:56:07;;;;;;;15.23;3.72;;;;;;;8.37;63.96;99218.31;4425222;32;20446;-86
2023/01/14 09:58:52;;;;;;;10.20;3.17;;;;;;;8.27;64.61;99225.69;4424694;32;20226;-87
2023/01/14 10:01:29;;;;;;;11.77;3.47;;;;;;;8.60;63.21;99228.78;4425343;32;20089;-87
2023/01/14 10:03:57;;;;;;;10.43;3.20;;;;;;;8.39;63.31;99225.19;4411508;32;20136;-87
2023/01/14 10:06:22;;;;;;;12.48;3.50;;;;;;;8.26;62.55;99216.09;4425206;32;20136;-87
2023/01/14 10:09:10;;;;;;;10.60;3.17;;;;;;;8.52;62.76;99215.13;4425094;32;20062;-87
2023/01/14 10:11:37;;;;;;;11.65;3.08;;;;;;;8.73;61.58;99210.78;4425315;32;20065;-87
2023/01/14 10:14:19;;;;;;;9.60;3.30;;;;;;;8.83;61.53;99206.88;4411391;32;20132;-87
2023/01/14 10:16:47;;;;;;;10.80;2.95;;;;;;;8.45;62.23;99211.88;4411560;32;20110;-87
2023/01/14 10:19:25;;;;;;;9.38;2.97;;;;;;;8.27;63.13;99199.44;4398719;32;20159;-87
2023/01/14 10:22:09;;;;;;;;;;;;;;;8.56;62.02;99198.31;4411869;32;20082;-87
2023/01/14 10:24:41;;;;;;;8.98;2.90;;;;;;;8.59;62.43;99200.81;4425472;32;20448;-87
2023/01/14 10:27:15;;;;;;;8.85;2.92;;;;;;;8.91;61.82;99213.59;4411681;32;20094;-87
2023/01/14 10:29:41;;;;;;;11.20;2.85;;;;;;;9.10;60.66;99217.16;4425462;32;20073;-86
2023/01/14 10:32:10;;;;;;;10.63;3.10;;;;;;;9.14;60.55;99195.09;4411651;32;20093;-87
2023/01/14 10:34:42;;;;;;;10.50;3.00;;;;;;;9.44;59.35;99210.47;4425314;32;20174;-87
2023/01/14 10:37:08;;;;;;;10.98;3.10;;;;;;;9.71;58.85;99202.28;4411356;32;20500;-87
2023/01/14 10:39:33;;;;;;;10.57;3.35;;;;;;;9.45;59.42;99207.78;4411205;32;20111;-87
2023/01/14 10:42:03;;;;;;;13.13;3.40;;;;;;;9.53;59.60;99204.81;4411151;32;20128;-87
2023/01/14 10:44:31;;;;;;;10.65;3.60;;;;;;;9.44;59.30;99207.81;4424969;32;20094;-87
2023/01/14 10:46:58;;;;;;;9.93;2.83;;;;;;;9.74;58.26;99195.13;4411159;32;20458;-87
2023/01/14 10:49:43;;;;;;;10.48;3.22;;;;;;;9.62;58.40;99199.16;4425100;32;20115;-87
2023/01/14 10:52:29;;;;;;;12.10;3.10;;;;;;;10.04;56.91;99192.87;4425061;32;20099;-87
2023/01/14 10:55:13;;;;;;;12.30;3.80;;;;;;;9.54;58.64;99201.28;4424993;32;20128;-87
2023/01/14 10:58:01;;;;;;;11.63;3.17;;;;;;;9.82;58.05;99197.41;4411287;32;20105;-87
2023/01/14 11:00:41;;;;;;;11.98;3.17;;;;;;;10.08;57.38;99187.47;4411351;32;20086;-87
2023/01/14 11:03:25;;;;;;;10.48;2.97;;;;;;;9.27;58.66;99195.41;4411404;32;20086;-87
2023/01/14 11:05:59;;;;;;;10.43;3.17;;;;;;;9.47;58.81;99188.44;4425254;32;20124;-87
2023/01/14 11:08:38;;;;;;;9.05;2.65;;;;;;;9.63;57.24;99189.47;4407831;32;20109;-87
2023/01/14 11:11:13;;;;;;;10.85;3.08;;;;;;;9.61;57.39;99196.59;4409608;32;20098;-87
2023/01/14 11:13:44;;;;;;;10.82;3.22;;;;;;;9.71;57.29;99179.44;4408534;32;20090;-88
2023/01/14 11:16:21;;;;;;;10.48;2.80;;;;;;;9.66;58.13;99178.81;4408538;32;20171;-88
2023/01/14 11:18:56;;;;;;;10.77;3.00;;;;;;;9.20;59.62;99188.72;4408221;32;20106;-87
2023/01/14 11:21:22;;;;;;;9.68;2.70;;;;;;;9.74;58.59;99184.59;4409652;32;20094;-87
2023/01/14 11:24:02;;;;;;;14.87;3.95;;;;;;;9.87;57.24;99170.87;4408383;32;20098;-88
2023/01/14 11:26:39;;;;;;;9.50;3.12;;;;;;;9.76;57.10;99164.31;4409749;32;20094;-88
2023/01/14 11:29:20;;;;;;;10.20;2.50;;;;;;;9.58;57.38;99168.66;4408720;32;20152;-87
2023/01/14 11:31:47;;;;;;;9.13;2.30;;;;;;;9.81;56.43;99167.63;4408247;32;20434;-87
2023/01/14 11:34:36;;;;;;;10.25;1.90;;;;;;;9.24;57.75;99164.00;4409485;32;20081;-87
2023/01/14 11:37:06;;;;;;;;;;;;;;;9.49;56.72;99166.41;4409732;32;20150;-87
2023/01/14 11:39:33;;;;;;;8.93;2.40;;;;;;;9.70;56.60;99166.41;4408433;32;19994;-87
2023/01/14 11:42:02;;;;;;;8.52;1.98;;;;;;;9.83;55.89;99167.53;4408097;32;20472;-88
2023/01/14 11:44:28;;;;;;;12.77;2.10;;;;;;;9.79;55.92;99166.84;4408132;32;20086;-87
2023/01/14 11:47:15;;;;;;;10.82;2.08;;;;;;;8.90;57.83;99175.06;4409207;32;20121;-87
2023/01/14 11:49:41;;;;;;;7.80;2.80;;;;;;;9.35;56.64;99155.63;4409374;32;20458;-87
2023/01/14 11:52:17;;;;;;;6.95;1.70;;;;;;;9.14;56.66;99163.53;4407972;32;20136;-87
2023/01/14 11:54:45;;;;;;;8.93;1.95;;;;;;;8.94;56.79;99166.16;4409188;32;20493;-87
2023/01/14 11:57:15;;;;;;;7.68;2.00;;;;;;;9.39;56.29;99173.00;4408024;32;20102;-87
2023/01/14 11:59:41;;;;;;;7.15;1.98;;;;;;;8.79;57.05;99171.13;4409188;32;20097;-87
2023/01/14 12:02:13;;;;;;;5.95;1.40;;;;;;;9.13;56.26;99166.22;4407973;32;20438;-87
2023/01/14 12:04:46;;;;;;;9.35;1.67;;;;;;;9.48;55.75;99159.44;4409126;32;20643;-88
2023/01/14 12:07:46;;;;;;;5.95;1.30;;;;;;;9.31;56.39;99160.19;4407959;32;20114;-88
2023/01/14 12:10:11;;;;;;;;;;;;;;;9.75;54.23;99156.50;4423183;32;20094;-87